createdAt,value
2023-07-31T00:01:45.014Z,2.70
2023-07-31T00:04:11.917Z,3.00
2023-07-31T00:06:39.217Z,3.00
2023-07-31T00:09:06.270Z,2.90
2023-07-31T00:11:33.184Z,3.00
2023-07-31T00:13:59.974Z,2.95
2023-07-31T00:16:27.270Z,3.10
2023-07-31T00:18:54.113Z,2.90
2023-07-31T00:21:20.972Z,2.97
2023-07-31T00:23:47.713Z,3.00
2023-07-31T00:26:14.563Z,3.13
2023-07-31T00:28:41.459Z,2.92
2023-07-31T00:31:08.453Z,3.33
2023-07-31T00:33:36.826Z,3.10
2023-07-31T00:36:03.764Z,3.10
2023-07-31T00:38:30.680Z,2.80
2023-07-31T00:40:57.500Z,2.75
2023-07-31T00:43:24.340Z,2.88
2023-07-31T00:45:51.397Z,2.60
2023-07-31T00:48:18.264Z,2.80
2023-07-31T00:50:45.056Z,2.97
2023-07-31T00:53:12.064Z,2.55
2023-07-31T00:55:38.795Z,2.70
2023-07-31T00:58:05.644Z,2.60
2023-07-31T01:00:32.446Z,2.58
2023-07-31T01:03:00.013Z,2.70
2023-07-31T01:05:37.872Z,2.33
2023-07-31T01:08:08.181Z,2.38
2023-07-31T01:10:49.901Z,3.28
2023-07-31T01:13:17.880Z,2.60
2023-07-31T01:15:44.671Z,2.47
2023-07-31T01:18:11.474Z,2.67
2023-07-31T01:20:39.481Z,2.53
2023-07-31T01:23:33.378Z,2.42
2023-07-31T01:26:29.161Z,2.72
2023-07-31T01:29:02.593Z,2.58
2023-07-31T01:31:31.213Z,2.95
2023-07-31T01:34:01.639Z,2.50
2023-07-31T01:36:29.659Z,2.30
2023-07-31T01:39:01.260Z,2.45
2023-07-31T01:41:28.312Z,2.58
2023-07-31T01:43:55.194Z,2.60
2023-07-31T01:46:22.107Z,2.42
2023-07-31T01:48:48.964Z,2.60
2023-07-31T01:51:15.813Z,2.40
2023-07-31T01:53:42.643Z,2.42
2023-07-31T01:56:09.484Z,2.60
2023-07-31T01:58:36.280Z,2.42
2023-07-31T02:01:03.120Z,2.67
2023-07-31T02:03:30.030Z,2.75
2023-07-31T02:05:57.871Z,2.67
2023-07-31T02:08:24.759Z,2.72
2023-07-31T02:10:51.559Z,2.25
2023-07-31T02:13:18.365Z,2.70
2023-07-31T02:15:46.935Z,2.78
2023-07-31T02:18:13.720Z,2.50
2023-07-31T02:20:40.523Z,2.50
2023-07-31T02:23:07.312Z,2.75
2023-07-31T02:25:34.426Z,2.63
2023-07-31T02:28:01.328Z,2.70
2023-07-31T02:30:28.174Z,2.67
2023-07-31T02:32:54.969Z,2.88
2023-07-31T02:35:21.763Z,2.83
2023-07-31T02:37:48.603Z,3.10
2023-07-31T02:40:15.575Z,3.30
2023-07-31T02:42:42.413Z,3.40
2023-07-31T02:45:09.853Z,3.30
2023-07-31T02:47:36.741Z,3.28
2023-07-31T02:50:04.549Z,3.25
2023-07-31T02:52:31.911Z,3.40
2023-07-31T02:54:59.405Z,4.10
2023-07-31T02:57:26.222Z,3.80
2023-07-31T02:59:53.050Z,3.60
2023-07-31T03:02:20.067Z,3.85
2023-07-31T03:04:47.156Z,3.65
2023-07-31T03:07:13.991Z,3.85
2023-07-31T03:09:40.920Z,3.58
2023-07-31T03:12:08.515Z,3.72
2023-07-31T03:14:35.306Z,3.65
2023-07-31T03:17:02.166Z,3.97
2023-07-31T03:19:32.148Z,4.25
2023-07-31T03:21:59.621Z,3.90
2023-07-31T03:24:27.124Z,4.10
2023-07-31T03:26:53.968Z,4.25
2023-07-31T03:29:22.970Z,3.80
2023-07-31T03:31:51.745Z,4.13
2023-07-31T03:34:18.694Z,4.40
2023-07-31T03:36:45.544Z,4.60
2023-07-31T03:39:12.413Z,4.03
2023-07-31T03:41:39.244Z,4.32
2023-07-31T03:44:06.038Z,4.25
2023-07-31T03:46:33.092Z,4.57
2023-07-31T03:49:00.401Z,4.47
2023-07-31T03:51:27.276Z,4.32
2023-07-31T03:53:54.147Z,4.65
2023-07-31T03:56:20.923Z,4.47
2023-07-31T03:58:47.759Z,4.55
2023-07-31T04:01:14.733Z,4.20
2023-07-31T04:03:41.614Z,4.10
2023-07-31T04:06:08.903Z,4.05
2023-07-31T04:08:35.713Z,4.30
2023-07-31T04:11:02.657Z,4.22
2023-07-31T04:13:31.428Z,3.90
2023-07-31T04:15:58.266Z,3.72
2023-07-31T04:18:26.372Z,4.13
2023-07-31T04:20:53.324Z,4.10
2023-07-31T04:23:20.127Z,3.97
2023-07-31T04:25:46.966Z,4.00
2023-07-31T04:28:13.855Z,4.00
2023-07-31T04:30:40.804Z,4.03
2023-07-31T04:33:07.771Z,4.13
2023-07-31T04:35:34.991Z,3.95
2023-07-31T04:38:01.938Z,4.15
2023-07-31T04:40:28.843Z,4.20
2023-07-31T04:42:55.689Z,4.35
2023-07-31T04:45:22.603Z,4.10
2023-07-31T04:47:49.436Z,4.38
2023-07-31T04:50:16.369Z,4.28
2023-07-31T04:52:43.139Z,3.95
2023-07-31T04:55:10.225Z,3.80
2023-07-31T04:57:37.058Z,3.63
2023-07-31T05:00:04.249Z,3.75
2023-07-31T05:02:31.218Z,4.40
2023-07-31T05:04:58.753Z,4.07
2023-07-31T05:07:25.534Z,4.10
2023-07-31T05:09:52.391Z,4.13
2023-07-31T05:12:19.200Z,4.32
2023-07-31T05:14:46.011Z,4.80
2023-07-31T05:17:12.893Z,4.53
2023-07-31T05:19:39.707Z,4.60
2023-07-31T05:22:06.707Z,4.35
2023-07-31T05:24:34.684Z,4.30
2023-07-31T05:27:01.535Z,4.03
2023-07-31T05:29:28.745Z,3.97
2023-07-31T05:31:55.524Z,4.15
2023-07-31T05:34:22.384Z,4.20
2023-07-31T05:36:49.180Z,4.20
2023-07-31T05:39:15.965Z,4.25
2023-07-31T05:41:42.844Z,4.00
2023-07-31T05:44:09.630Z,4.22
2023-07-31T05:46:36.487Z,4.00
2023-07-31T05:49:03.805Z,4.20
2023-07-31T05:51:30.593Z,4.35
2023-07-31T05:53:57.518Z,4.10
2023-07-31T05:56:24.412Z,4.25
2023-07-31T05:58:51.572Z,3.95
2023-07-31T06:01:18.605Z,4.60
2023-07-31T06:03:45.935Z,4.50
2023-07-31T06:06:12.890Z,4.22
2023-07-31T06:08:39.713Z,4.93
2023-07-31T06:11:06.882Z,4.55
2023-07-31T06:13:33.801Z,4.90
2023-07-31T06:16:00.962Z,5.03
2023-07-31T06:18:27.917Z,5.10
2023-07-31T06:20:55.104Z,5.20
2023-07-31T06:23:22.122Z,5.22
2023-07-31T06:25:49.096Z,5.22
2023-07-31T06:28:15.993Z,4.88
2023-07-31T06:30:42.941Z,5.22
2023-07-31T06:33:10.586Z,5.22
2023-07-31T06:35:37.568Z,5.13
2023-07-31T06:38:04.472Z,4.88
2023-07-31T06:40:31.580Z,4.80
2023-07-31T06:42:58.406Z,5.32
2023-07-31T06:45:25.284Z,5.05
2023-07-31T06:47:52.201Z,4.70
2023-07-31T06:50:19.084Z,5.28
2023-07-31T06:52:45.870Z,5.25
2023-07-31T06:55:23.090Z,5.15
2023-07-31T06:57:52.018Z,5.30
2023-07-31T07:00:20.473Z,4.68
2023-07-31T07:02:48.835Z,4.45
2023-07-31T07:05:17.188Z,5.03
2023-07-31T07:07:44.567Z,4.57
2023-07-31T07:10:12.138Z,4.90
2023-07-31T07:12:39.028Z,4.93
2023-07-31T07:15:06.463Z,4.28
2023-07-31T07:17:33.391Z,4.90
2023-07-31T07:20:00.934Z,4.20
2023-07-31T07:22:28.647Z,4.22
2023-07-31T07:24:55.889Z,4.35
2023-07-31T07:27:23.094Z,4.20
2023-07-31T07:29:53.675Z,3.90
2023-07-31T07:32:21.341Z,4.25
2023-07-31T07:34:49.941Z,3.65
2023-07-31T07:37:17.365Z,3.38
2023-07-31T07:39:44.777Z,3.00
2023-07-31T07:42:11.727Z,2.80
2023-07-31T07:44:38.593Z,3.00
2023-07-31T07:47:07.268Z,3.10
2023-07-31T07:49:35.821Z,3.10
2023-07-31T07:52:03.274Z,3.55
2023-07-31T07:54:30.116Z,3.05
2023-07-31T07:56:56.884Z,2.80
2023-07-31T07:59:23.763Z,3.08
2023-07-31T08:01:50.651Z,3.10
2023-07-31T08:04:17.491Z,3.22
2023-07-31T08:06:44.343Z,3.55
2023-07-31T08:09:11.202Z,3.58
2023-07-31T08:11:38.160Z,3.33
2023-07-31T08:14:04.928Z,3.20
2023-07-31T08:16:31.878Z,3.30
2023-07-31T08:18:58.815Z,3.13
2023-07-31T08:21:25.920Z,3.20
2023-07-31T08:23:52.716Z,3.33
2023-07-31T08:26:20.443Z,3.58
2023-07-31T08:28:47.477Z,2.75
2023-07-31T08:31:14.358Z,3.70
2023-07-31T08:33:41.485Z,2.70
2023-07-31T08:36:08.686Z,2.10
2023-07-31T08:38:35.695Z,2.50
2023-07-31T08:41:05.754Z,1.60
2023-07-31T08:43:33.584Z,1.55
2023-07-31T08:46:00.848Z,1.80
2023-07-31T08:48:29.296Z,1.70
2023-07-31T08:50:56.173Z,1.50
2023-07-31T08:53:23.076Z,1.48
2023-07-31T08:55:50.380Z,1.80
2023-07-31T08:58:19.596Z,2.63
2023-07-31T09:00:48.331Z,1.33
2023-07-31T09:03:17.436Z,1.70
2023-07-31T09:05:46.280Z,1.50
2023-07-31T09:08:15.650Z,1.70
2023-07-31T09:10:43.853Z,1.55
2023-07-31T09:13:13.164Z,1.60
2023-07-31T09:15:41.440Z,1.90
2023-07-31T09:18:09.229Z,1.50
2023-07-31T09:20:36.828Z,1.75
2023-07-31T09:23:14.410Z,1.40
2023-07-31T09:25:44.919Z,1.33
2023-07-31T09:28:13.220Z,1.42
2023-07-31T09:30:52.494Z,1.60
2023-07-31T09:33:20.570Z,1.20
2023-07-31T09:35:49.457Z,1.30
2023-07-31T09:38:17.424Z,1.20
2023-07-31T09:40:49.043Z,1.20
2023-07-31T09:43:20.776Z,1.40
2023-07-31T09:45:48.612Z,1.58
2023-07-31T09:48:17.697Z,1.30
2023-07-31T09:50:46.721Z,1.40
2023-07-31T09:53:14.062Z,1.40
2023-07-31T09:55:41.793Z,1.50
2023-07-31T09:58:10.700Z,1.20
2023-07-31T10:00:38.246Z,2.47
2023-07-31T10:03:10.795Z,2.00
2023-07-31T10:05:41.287Z,1.30
2023-07-31T10:08:10.810Z,1.50
2023-07-31T10:10:42.142Z,1.50
2023-07-31T10:13:09.426Z,1.60
2023-07-31T10:15:37.349Z,1.55
2023-07-31T10:18:07.325Z,1.80
2023-07-31T10:20:35.366Z,1.40
2023-07-31T10:23:03.008Z,1.45
2023-07-31T10:25:31.475Z,1.70
2023-07-31T10:27:59.127Z,1.48
2023-07-31T10:30:28.752Z,1.52
2023-07-31T10:32:56.857Z,1.60
2023-07-31T10:35:23.745Z,1.20
2023-07-31T10:37:50.551Z,1.48
2023-07-31T10:40:24.796Z,1.63
2023-07-31T10:42:55.386Z,1.40
2023-07-31T10:45:43.531Z,1.50
2023-07-31T10:48:17.562Z,1.42
2023-07-31T10:50:50.594Z,1.67
2023-07-31T10:53:31.775Z,1.90
2023-07-31T10:56:06.633Z,1.88
2023-07-31T10:58:34.373Z,1.85
2023-07-31T11:01:04.436Z,1.25
2023-07-31T11:03:43.912Z,1.33
2023-07-31T11:06:11.223Z,1.35
2023-07-31T11:08:44.618Z,1.50
2023-07-31T11:11:13.825Z,1.42
2023-07-31T11:13:53.533Z,1.10
2023-07-31T11:16:22.898Z,2.28
2023-07-31T11:18:52.214Z,1.80
2023-07-31T11:21:21.450Z,1.52
2023-07-31T11:24:00.655Z,1.50
2023-07-31T11:26:29.019Z,1.50
2023-07-31T11:28:55.898Z,1.40
2023-07-31T11:31:23.270Z,1.70
2023-07-31T11:33:50.132Z,1.60
2023-07-31T11:36:21.657Z,1.70
2023-07-31T11:38:49.233Z,1.40
2023-07-31T11:41:18.053Z,1.50
2023-07-31T11:43:46.443Z,1.50
2023-07-31T11:46:16.057Z,1.75
2023-07-31T11:48:43.355Z,1.63
2023-07-31T11:51:13.256Z,1.40
2023-07-31T11:53:56.795Z,1.40
2023-07-31T11:56:25.326Z,1.60
2023-07-31T11:58:59.492Z,1.30
2023-07-31T12:01:29.041Z,1.30
2023-07-31T12:03:57.066Z,1.60
2023-07-31T12:06:37.567Z,1.58
2023-07-31T12:09:06.198Z,1.70
2023-07-31T12:11:43.353Z,1.50
2023-07-31T12:14:25.164Z,2.03
2023-07-31T12:16:56.982Z,1.52
2023-07-31T12:19:28.883Z,1.23
2023-07-31T12:21:56.708Z,1.40
2023-07-31T12:24:23.706Z,1.40
2023-07-31T12:26:50.743Z,1.20
2023-07-31T12:29:17.580Z,1.48
2023-07-31T12:31:44.780Z,1.42
2023-07-31T12:34:19.625Z,1.20
2023-07-31T12:36:46.564Z,1.42
2023-07-31T12:39:14.048Z,1.40
2023-07-31T12:41:40.973Z,2.40
2023-07-31T12:44:07.779Z,1.50
2023-07-31T12:46:34.803Z,1.80
2023-07-31T12:49:01.673Z,1.38
2023-07-31T12:51:28.538Z,1.30
2023-07-31T12:53:55.296Z,1.20
2023-07-31T12:56:22.270Z,1.20
2023-07-31T12:58:49.033Z,1.30
2023-07-31T13:01:15.832Z,1.30
2023-07-31T13:03:42.736Z,1.60
2023-07-31T13:06:09.692Z,1.90
2023-07-31T13:08:36.517Z,1.10
2023-07-31T13:11:03.326Z,1.45
2023-07-31T13:13:33.022Z,1.50
2023-07-31T13:16:00.290Z,1.23
2023-07-31T13:18:27.316Z,1.50
2023-07-31T13:20:54.264Z,1.20
2023-07-31T13:23:21.053Z,1.20
2023-07-31T13:25:47.875Z,1.30
2023-07-31T13:28:15.650Z,1.30
2023-07-31T13:30:42.567Z,1.60
2023-07-31T13:33:21.129Z,1.33
2023-07-31T13:35:56.295Z,1.70
2023-07-31T13:38:23.092Z,1.52
2023-07-31T13:40:49.922Z,1.20
2023-07-31T13:43:16.764Z,1.40
2023-07-31T13:45:43.552Z,1.33
2023-07-31T13:48:10.442Z,1.40
2023-07-31T13:50:37.316Z,1.42
2023-07-31T13:53:04.132Z,1.80
2023-07-31T13:55:30.961Z,1.60
2023-07-31T13:57:57.835Z,1.50
2023-07-31T14:00:24.597Z,1.30
2023-07-31T14:02:51.399Z,1.50
2023-07-31T14:05:18.907Z,1.23
2023-07-31T14:07:45.684Z,1.48
2023-07-31T14:10:12.485Z,1.50
2023-07-31T14:12:43.113Z,1.45
2023-07-31T14:15:10.997Z,1.40
2023-07-31T14:17:38.074Z,1.63
2023-07-31T14:20:06.034Z,1.60
2023-07-31T14:22:35.039Z,1.50
2023-07-31T14:25:02.529Z,1.60
2023-07-31T14:27:29.357Z,1.30
2023-07-31T14:29:57.442Z,1.30
2023-07-31T14:32:26.534Z,1.58
2023-07-31T14:34:53.791Z,1.30
2023-07-31T14:37:20.626Z,1.60
2023-07-31T14:39:47.497Z,1.50
2023-07-31T14:42:14.345Z,1.52
2023-07-31T14:44:41.195Z,1.65
2023-07-31T14:47:08.007Z,1.70
2023-07-31T14:49:34.840Z,1.35
2023-07-31T14:52:01.758Z,1.50
2023-07-31T14:54:28.639Z,1.60
2023-07-31T14:56:55.432Z,1.42
2023-07-31T14:59:22.312Z,1.45
2023-07-31T15:01:49.137Z,1.77
2023-07-31T15:04:16.089Z,1.42
2023-07-31T15:06:43.168Z,1.50
2023-07-31T15:09:10.164Z,1.40
2023-07-31T15:11:37.017Z,1.52
2023-07-31T15:14:03.926Z,1.52
2023-07-31T15:16:32.509Z,1.50
2023-07-31T15:18:59.458Z,1.58
2023-07-31T15:21:26.461Z,1.30
2023-07-31T15:23:53.572Z,1.88
2023-07-31T15:26:20.551Z,1.67
2023-07-31T15:28:57.178Z,1.33
2023-07-31T15:31:24.176Z,1.50
2023-07-31T15:33:51.055Z,1.70
2023-07-31T15:36:18.519Z,1.55
2023-07-31T15:38:45.382Z,1.45
2023-07-31T15:41:12.249Z,1.90
2023-07-31T15:43:39.090Z,1.45
2023-07-31T15:46:05.889Z,1.40
2023-07-31T15:48:32.837Z,1.60
2023-07-31T15:50:59.739Z,1.40
2023-07-31T15:53:26.515Z,1.88
2023-07-31T15:55:53.270Z,1.58
2023-07-31T15:58:20.034Z,1.50
2023-07-31T16:00:47.092Z,1.70
2023-07-31T16:03:14.021Z,1.50
2023-07-31T16:05:40.930Z,1.85
2023-07-31T16:08:08.917Z,1.92
2023-07-31T16:10:36.214Z,1.63
2023-07-31T16:13:04.376Z,1.90
2023-07-31T16:15:31.115Z,1.60
2023-07-31T16:17:58.410Z,1.67
2023-07-31T16:20:25.470Z,1.67
2023-07-31T16:22:52.302Z,1.60
2023-07-31T16:25:19.154Z,1.80
2023-07-31T16:27:45.967Z,1.60
2023-07-31T16:30:12.758Z,1.80
2023-07-31T16:32:39.684Z,1.92
2023-07-31T16:35:07.432Z,1.80
2023-07-31T16:37:34.495Z,1.60
2023-07-31T16:40:01.309Z,1.80
2023-07-31T16:42:28.243Z,1.60
2023-07-31T16:44:55.056Z,1.90
2023-07-31T16:47:21.922Z,1.73
2023-07-31T16:49:48.856Z,1.80
2023-07-31T16:52:15.731Z,1.95
2023-07-31T16:54:42.542Z,2.40
2023-07-31T16:57:09.303Z,1.80
2023-07-31T16:59:36.155Z,2.22
2023-07-31T17:02:03.918Z,3.00
2023-07-31T17:04:32.177Z,2.47
2023-07-31T17:06:59.621Z,2.10
2023-07-31T17:09:27.718Z,1.55
2023-07-31T17:11:55.826Z,2.25
2023-07-31T17:14:22.764Z,1.77
2023-07-31T17:16:49.623Z,1.98
2023-07-31T17:19:16.498Z,2.08
2023-07-31T17:21:43.407Z,1.83
2023-07-31T17:24:10.209Z,1.92
2023-07-31T17:26:37.005Z,1.90
2023-07-31T17:29:04.639Z,1.80
2023-07-31T17:31:31.708Z,1.70
2023-07-31T17:33:58.624Z,1.63
2023-07-31T17:36:25.637Z,1.77
2023-07-31T17:38:52.491Z,1.70
2023-07-31T17:41:19.330Z,2.70
2023-07-31T17:43:46.628Z,1.90
2023-07-31T17:46:15.067Z,1.70
2023-07-31T17:48:43.968Z,2.05
2023-07-31T17:51:10.890Z,1.88
2023-07-31T17:53:37.660Z,1.52
2023-07-31T17:56:04.645Z,1.80
2023-07-31T17:58:31.425Z,1.95
2023-07-31T18:00:58.282Z,1.52
2023-07-31T18:03:26.943Z,2.05
2023-07-31T18:05:54.125Z,1.55
2023-07-31T18:08:21.143Z,1.80
2023-07-31T18:10:48.382Z,1.52
2023-07-31T18:13:15.967Z,1.63
2023-07-31T18:15:46.736Z,1.70
2023-07-31T18:18:14.502Z,1.60
2023-07-31T18:20:41.775Z,1.77
2023-07-31T18:23:08.665Z,1.70
2023-07-31T18:25:35.470Z,1.65
2023-07-31T18:28:02.322Z,1.88
2023-07-31T18:30:29.315Z,1.90
2023-07-31T18:32:56.260Z,1.83
2023-07-31T18:35:24.525Z,1.80
2023-07-31T18:37:51.600Z,1.77
2023-07-31T18:40:18.514Z,2.00
2023-07-31T18:42:46.445Z,1.52
2023-07-31T18:45:13.334Z,1.98
2023-07-31T18:47:40.190Z,1.88
2023-07-31T18:50:07.578Z,1.80
2023-07-31T18:52:34.346Z,2.38
2023-07-31T18:55:01.195Z,2.05
2023-07-31T18:57:28.317Z,2.13
2023-07-31T18:59:55.147Z,2.35
2023-07-31T19:02:21.995Z,2.17
2023-07-31T19:04:48.816Z,2.25
2023-07-31T19:07:15.678Z,2.13
2023-07-31T19:09:42.480Z,2.15
2023-07-31T19:12:09.340Z,2.20
2023-07-31T19:14:36.742Z,2.20
2023-07-31T19:17:03.682Z,2.13
2023-07-31T19:19:30.503Z,2.20
2023-07-31T19:21:57.776Z,2.03
2023-07-31T19:24:27.797Z,2.08
2023-07-31T19:26:58.738Z,1.98
2023-07-31T19:29:25.976Z,2.22
2023-07-31T19:31:52.885Z,2.03
2023-07-31T19:34:19.742Z,2.25
2023-07-31T19:36:49.063Z,2.10
2023-07-31T19:39:15.912Z,1.85
2023-07-31T19:41:43.764Z,1.90
2023-07-31T19:44:11.143Z,2.08
2023-07-31T19:46:38.880Z,1.80
2023-07-31T19:49:06.576Z,2.20
2023-07-31T19:51:33.431Z,2.38
2023-07-31T19:54:00.272Z,2.25
2023-07-31T19:56:29.873Z,2.13
2023-07-31T19:58:56.956Z,1.80
2023-07-31T20:01:26.190Z,1.95
2023-07-31T20:03:54.292Z,1.90
2023-07-31T20:06:21.273Z,1.80
2023-07-31T20:08:48.116Z,2.00
2023-07-31T20:11:15.008Z,2.08
2023-07-31T20:13:41.876Z,2.10
2023-07-31T20:16:09.439Z,2.17
2023-07-31T20:18:36.408Z,2.10
2023-07-31T20:21:03.290Z,2.10
2023-07-31T20:23:42.515Z,1.90
2023-07-31T20:26:10.268Z,1.90
2023-07-31T20:28:37.225Z,2.13
2023-07-31T20:31:04.199Z,1.73
2023-07-31T20:33:31.074Z,1.88
2023-07-31T20:35:57.875Z,1.80
2023-07-31T20:38:24.676Z,1.75
2023-07-31T20:40:54.730Z,1.92
2023-07-31T20:43:21.652Z,1.70
2023-07-31T20:45:48.514Z,2.15
2023-07-31T20:48:15.830Z,2.00
2023-07-31T20:50:43.025Z,2.20
2023-07-31T20:53:09.929Z,2.28
2023-07-31T20:55:39.140Z,1.90
2023-07-31T20:58:06.357Z,2.50
2023-07-31T21:00:33.154Z,3.00
2023-07-31T21:03:00.060Z,3.10
2023-07-31T21:05:26.996Z,2.78
2023-07-31T21:07:53.840Z,2.60
2023-07-31T21:10:21.161Z,2.83
2023-07-31T21:12:47.978Z,2.67
2023-07-31T21:15:14.886Z,2.17
2023-07-31T21:17:41.734Z,2.20
2023-07-31T21:20:08.950Z,1.88
2023-07-31T21:22:35.718Z,1.80
2023-07-31T21:25:02.550Z,1.92
2023-07-31T21:27:29.764Z,1.75
2023-07-31T21:29:56.633Z,1.92
2023-07-31T21:32:23.473Z,1.90
2023-07-31T21:34:50.272Z,2.10
2023-07-31T21:37:17.134Z,2.20
2023-07-31T21:39:44.189Z,2.28
2023-07-31T21:42:11.069Z,2.10
2023-07-31T21:44:37.878Z,1.95
2023-07-31T21:47:05.057Z,2.20
2023-07-31T21:49:31.926Z,2.08
2023-07-31T21:51:58.691Z,2.08
2023-07-31T21:54:25.478Z,1.92
2023-07-31T21:56:52.269Z,1.85
2023-07-31T21:59:19.136Z,1.90
2023-07-31T22:01:45.960Z,1.90
2023-07-31T22:04:12.716Z,1.77
2023-07-31T22:06:39.841Z,1.90
2023-07-31T22:09:06.916Z,1.83
2023-07-31T22:11:33.779Z,1.83
2023-07-31T22:14:00.582Z,1.83
2023-07-31T22:16:27.455Z,2.05
2023-07-31T22:18:54.328Z,1.70
2023-07-31T22:21:21.381Z,1.85
2023-07-31T22:23:48.407Z,1.90
2023-07-31T22:26:15.235Z,1.90
2023-07-31T22:28:42.085Z,1.70
2023-07-31T22:31:09.083Z,1.85
2023-07-31T22:33:37.064Z,1.88
2023-07-31T22:36:04.083Z,1.52
2023-07-31T22:38:30.956Z,1.90
2023-07-31T22:40:57.704Z,1.85
2023-07-31T22:43:24.532Z,1.90
2023-07-31T22:45:51.374Z,1.80
2023-07-31T22:48:18.280Z,1.70
2023-07-31T22:50:45.093Z,1.60
2023-07-31T22:53:11.890Z,1.67
2023-07-31T22:55:38.680Z,1.67
2023-07-31T22:58:05.476Z,1.48
2023-07-31T23:00:32.314Z,1.60
2023-07-31T23:02:59.268Z,1.77
2023-07-31T23:05:26.137Z,1.70
2023-07-31T23:07:52.969Z,1.80
2023-07-31T23:10:19.808Z,1.70
2023-07-31T23:12:46.609Z,1.60
2023-07-31T23:15:13.724Z,2.00
2023-07-31T23:17:40.528Z,1.95
2023-07-31T23:20:07.849Z,1.92
2023-07-31T23:22:36.648Z,1.50
2023-07-31T23:25:03.877Z,1.60
2023-07-31T23:27:31.372Z,1.48
2023-07-31T23:29:58.238Z,1.60
2023-07-31T23:32:25.142Z,1.65
2023-07-31T23:34:51.944Z,1.58
2023-07-31T23:37:18.777Z,1.80
2023-07-31T23:39:45.501Z,1.70
2023-07-31T23:42:12.350Z,1.90
2023-07-31T23:44:39.182Z,1.70
2023-07-31T23:47:06.380Z,1.73
2023-07-31T23:49:33.188Z,1.98
2023-07-31T23:52:00.151Z,1.60
2023-07-31T23:54:27.539Z,1.90
2023-07-31T23:56:55.715Z,1.90
2023-07-31T23:59:22.674Z,1.83
